sensor_id;sensor_type;location;lat;lon;timestamp;temperature;humidity
85702;DHT22;76139;50.888;3.882;2024-02-15T00:01:04;12.90;89.90
85702;DHT22;76139;50.888;3.882;2024-02-15T00:03:30;12.90;89.80
85702;DHT22;76139;50.888;3.882;2024-02-15T00:05:57;12.90;89.80
85702;DHT22;76139;50.888;3.882;2024-02-15T00:08:23;12.90;89.70
85702;DHT22;76139;50.888;3.882;2024-02-15T00:10:50;13.00;89.70
85702;DHT22;76139;50.888;3.882;2024-02-15T00:13:15;12.90;89.80
85702;DHT22;76139;50.888;3.882;2024-02-15T00:15:41;12.90;89.60
85702;DHT22;76139;50.888;3.882;2024-02-15T00:18:07;13.00;89.30
85702;DHT22;76139;50.888;3.882;2024-02-15T00:20:32;13.00;89.20
85702;DHT22;76139;50.888;3.882;2024-02-15T00:22:59;13.00;89.10
85702;DHT22;76139;50.888;3.882;2024-02-15T00:25:25;13.00;89.20
85702;DHT22;76139;50.888;3.882;2024-02-15T00:27:51;13.00;89.00
85702;DHT22;76139;50.888;3.882;2024-02-15T00:30:17;13.00;88.90
85702;DHT22;76139;50.888;3.882;2024-02-15T00:32:43;13.00;88.90
85702;DHT22;76139;50.888;3.882;2024-02-15T00:35:11;13.00;88.70
85702;DHT22;76139;50.888;3.882;2024-02-15T00:37:40;13.00;88.50
85702;DHT22;76139;50.888;3.882;2024-02-15T00:40:06;13.00;88.40
85702;DHT22;76139;50.888;3.882;2024-02-15T00:42:32;13.00;88.30
85702;DHT22;76139;50.888;3.882;2024-02-15T00:44:58;13.00;88.50
85702;DHT22;76139;50.888;3.882;2024-02-15T00:47:24;13.00;88.20
85702;DHT22;76139;50.888;3.882;2024-02-15T00:49:49;13.00;88.10
85702;DHT22;76139;50.888;3.882;2024-02-15T00:52:18;13.00;88.20
85702;DHT22;76139;50.888;3.882;2024-02-15T00:54:45;13.00;88.20
85702;DHT22;76139;50.888;3.882;2024-02-15T00:57:10;13.10;87.70
85702;DHT22;76139;50.888;3.882;2024-02-15T00:59:36;13.20;87.30
85702;DHT22;76139;50.888;3.882;2024-02-15T01:02:02;13.20;86.80
85702;DHT22;76139;50.888;3.882;2024-02-15T01:04:29;13.30;86.70
85702;DHT22;76139;50.888;3.882;2024-02-15T01:06:55;13.30;86.60
85702;DHT22;76139;50.888;3.882;2024-02-15T01:09:23;13.20;86.80
85702;DHT22;76139;50.888;3.882;2024-02-15T01:11:49;13.20;87.50
85702;DHT22;76139;50.888;3.882;2024-02-15T01:14:15;13.10;88.20
85702;DHT22;76139;50.888;3.882;2024-02-15T01:16:44;13.20;88.10
85702;DHT22;76139;50.888;3.882;2024-02-15T01:19:10;13.20;87.80
85702;DHT22;76139;50.888;3.882;2024-02-15T01:21:36;13.10;88.90
85702;DHT22;76139;50.888;3.882;2024-02-15T01:24:02;13.20;88.10
85702;DHT22;76139;50.888;3.882;2024-02-15T01:26:29;13.20;88.10
85702;DHT22;76139;50.888;3.882;2024-02-15T01:28:55;13.00;88.00
85702;DHT22;76139;50.888;3.882;2024-02-15T01:31:21;13.00;88.40
85702;DHT22;76139;50.888;3.882;2024-02-15T01:33:48;13.00;88.20
85702;DHT22;76139;50.888;3.882;2024-02-15T01:36:17;13.00;88.10
85702;DHT22;76139;50.888;3.882;2024-02-15T01:38:44;13.00;88.10
85702;DHT22;76139;50.888;3.882;2024-02-15T01:41:10;13.00;88.10
85702;DHT22;76139;50.888;3.882;2024-02-15T01:43:36;12.90;88.50
85702;DHT22;76139;50.888;3.882;2024-02-15T01:46:07;13.00;88.20
85702;DHT22;76139;50.888;3.882;2024-02-15T01:48:33;13.10;88.30
85702;DHT22;76139;50.888;3.882;2024-02-15T01:50:59;13.10;88.00
85702;DHT22;76139;50.888;3.882;2024-02-15T01:53:25;13.10;87.90
85702;DHT22;76139;50.888;3.882;2024-02-15T01:55:54;13.10;88.00
85702;DHT22;76139;50.888;3.882;2024-02-15T01:58:24;13.20;87.50
85702;DHT22;76139;50.888;3.882;2024-02-15T02:00:49;13.10;87.30
85702;DHT22;76139;50.888;3.882;2024-02-15T02:03:16;13.20;87.10
85702;DHT22;76139;50.888;3.882;2024-02-15T02:05:54;13.10;87.50
85702;DHT22;76139;50.888;3.882;2024-02-15T02:08:20;13.10;87.40
85702;DHT22;76139;50.888;3.882;2024-02-15T02:10:47;13.20;87.20
85702;DHT22;76139;50.888;3.882;2024-02-15T02:13:13;13.20;86.90
85702;DHT22;76139;50.888;3.882;2024-02-15T02:15:40;13.20;86.90
85702;DHT22;76139;50.888;3.882;2024-02-15T02:18:06;13.30;86.20
85702;DHT22;76139;50.888;3.882;2024-02-15T02:20:32;13.40;86.30
85702;DHT22;76139;50.888;3.882;2024-02-15T02:23:21;13.40;85.80
85702;DHT22;76139;50.888;3.882;2024-02-15T02:25:48;13.50;85.30
85702;DHT22;76139;50.888;3.882;2024-02-15T02:28:15;13.60;84.90
85702;DHT22;76139;50.888;3.882;2024-02-15T02:30:44;13.50;85.40
85702;DHT22;76139;50.888;3.882;2024-02-15T02:33:20;13.50;85.50
85702;DHT22;76139;50.888;3.882;2024-02-15T02:35:47;13.50;85.60
85702;DHT22;76139;50.888;3.882;2024-02-15T02:38:14;13.60;85.20
85702;DHT22;76139;50.888;3.882;2024-02-15T02:40:41;13.50;85.00
85702;DHT22;76139;50.888;3.882;2024-02-15T02:43:07;13.50;85.30
85702;DHT22;76139;50.888;3.882;2024-02-15T02:45:33;13.50;85.40
85702;DHT22;76139;50.888;3.882;2024-02-15T02:47:58;13.50;85.20
85702;DHT22;76139;50.888;3.882;2024-02-15T02:50:24;13.50;85.30
85702;DHT22;76139;50.888;3.882;2024-02-15T02:52:50;13.50;85.40
85702;DHT22;76139;50.888;3.882;2024-02-15T02:55:16;13.50;85.40
85702;DHT22;76139;50.888;3.882;2024-02-15T02:57:43;13.50;85.40
85702;DHT22;76139;50.888;3.882;2024-02-15T03:00:13;13.50;85.10
85702;DHT22;76139;50.888;3.882;2024-02-15T03:02:41;13.40;85.90
85702;DHT22;76139;50.888;3.882;2024-02-15T03:05:09;13.30;86.60
85702;DHT22;76139;50.888;3.882;2024-02-15T03:07:36;13.40;85.90
85702;DHT22;76139;50.888;3.882;2024-02-15T03:10:03;13.40;85.90
85702;DHT22;76139;50.888;3.882;2024-02-15T03:12:35;13.30;86.60
85702;DHT22;76139;50.888;3.882;2024-02-15T03:15:05;13.30;87.10
85702;DHT22;76139;50.888;3.882;2024-02-15T03:17:40;13.20;87.20
85702;DHT22;76139;50.888;3.882;2024-02-15T03:20:07;13.20;87.60
85702;DHT22;76139;50.888;3.882;2024-02-15T03:23:01;13.10;88.20
85702;DHT22;76139;50.888;3.882;2024-02-15T03:25:28;13.00;88.80
85702;DHT22;76139;50.888;3.882;2024-02-15T03:28:00;13.00;89.30
85702;DHT22;76139;50.888;3.882;2024-02-15T03:30:30;12.80;90.10
85702;DHT22;76139;50.888;3.882;2024-02-15T03:32:57;12.70;90.50
85702;DHT22;76139;50.888;3.882;2024-02-15T03:35:25;12.60;90.80
85702;DHT22;76139;50.888;3.882;2024-02-15T03:37:52;12.60;90.90
85702;DHT22;76139;50.888;3.882;2024-02-15T03:40:22;12.60;90.90
85702;DHT22;76139;50.888;3.882;2024-02-15T03:42:48;12.50;90.90
85702;DHT22;76139;50.888;3.882;2024-02-15T03:45:15;12.50;91.10
85702;DHT22;76139;50.888;3.882;2024-02-15T03:47:41;12.40;91.20
85702;DHT22;76139;50.888;3.882;2024-02-15T03:50:08;12.40;91.30
85702;DHT22;76139;50.888;3.882;2024-02-15T03:52:37;12.30;91.70
85702;DHT22;76139;50.888;3.882;2024-02-15T03:55:04;12.30;91.80
85702;DHT22;76139;50.888;3.882;2024-02-15T03:57:30;12.20;92.00
85702;DHT22;76139;50.888;3.882;2024-02-15T03:59:56;12.20;92.10
85702;DHT22;76139;50.888;3.882;2024-02-15T04:02:24;12.20;92.10
85702;DHT22;76139;50.888;3.882;2024-02-15T04:04:53;12.20;92.10
85702;DHT22;76139;50.888;3.882;2024-02-15T04:07:21;12.30;92.00
85702;DHT22;76139;50.888;3.882;2024-02-15T04:09:48;12.30;91.90
85702;DHT22;76139;50.888;3.882;2024-02-15T04:12:14;12.30;91.80
85702;DHT22;76139;50.888;3.882;2024-02-15T04:14:46;12.30;91.70
85702;DHT22;76139;50.888;3.882;2024-02-15T04:17:12;12.30;91.80
85702;DHT22;76139;50.888;3.882;2024-02-15T04:19:47;12.30;91.60
85702;DHT22;76139;50.888;3.882;2024-02-15T04:22:16;12.30;91.50
85702;DHT22;76139;50.888;3.882;2024-02-15T04:24:42;12.30;91.40
85702;DHT22;76139;50.888;3.882;2024-02-15T04:27:09;12.40;91.40
85702;DHT22;76139;50.888;3.882;2024-02-15T04:29:38;12.40;91.30
85702;DHT22;76139;50.888;3.882;2024-02-15T04:32:07;12.40;91.20
85702;DHT22;76139;50.888;3.882;2024-02-15T04:34:34;12.40;91.00
85702;DHT22;76139;50.888;3.882;2024-02-15T04:37:00;12.50;90.90
85702;DHT22;76139;50.888;3.882;2024-02-15T04:39:26;12.50;90.80
85702;DHT22;76139;50.888;3.882;2024-02-15T04:41:55;12.50;90.70
85702;DHT22;76139;50.888;3.882;2024-02-15T04:44:21;12.60;90.60
85702;DHT22;76139;50.888;3.882;2024-02-15T04:46:48;12.70;90.40
85702;DHT22;76139;50.888;3.882;2024-02-15T04:49:15;12.70;90.30
85702;DHT22;76139;50.888;3.882;2024-02-15T04:51:41;12.70;90.30
85702;DHT22;76139;50.888;3.882;2024-02-15T04:54:10;12.70;90.20
85702;DHT22;76139;50.888;3.882;2024-02-15T04:56:39;12.60;90.20
85702;DHT22;76139;50.888;3.882;2024-02-15T04:59:05;12.70;90.30
85702;DHT22;76139;50.888;3.882;2024-02-15T05:01:35;12.70;90.10
85702;DHT22;76139;50.888;3.882;2024-02-15T05:04:01;12.70;90.00
85702;DHT22;76139;50.888;3.882;2024-02-15T05:06:31;12.70;90.00
85702;DHT22;76139;50.888;3.882;2024-02-15T05:08:57;12.70;89.60
85702;DHT22;76139;50.888;3.882;2024-02-15T05:11:25;12.70;89.80
85702;DHT22;76139;50.888;3.882;2024-02-15T05:13:51;12.60;89.90
85702;DHT22;76139;50.888;3.882;2024-02-15T05:16:17;12.60;89.80
85702;DHT22;76139;50.888;3.882;2024-02-15T05:18:44;12.60;89.50
85702;DHT22;76139;50.888;3.882;2024-02-15T05:21:11;12.70;89.20
85702;DHT22;76139;50.888;3.882;2024-02-15T05:23:40;12.70;88.90
85702;DHT22;76139;50.888;3.882;2024-02-15T05:26:08;12.70;88.80
85702;DHT22;76139;50.888;3.882;2024-02-15T05:28:34;12.80;88.60
85702;DHT22;76139;50.888;3.882;2024-02-15T05:33:42;13.00;86.90
85702;DHT22;76139;50.888;3.882;2024-02-15T05:36:16;13.10;86.90
85702;DHT22;76139;50.888;3.882;2024-02-15T05:38:42;13.10;86.20
85702;DHT22;76139;50.888;3.882;2024-02-15T05:41:11;13.20;85.30
85702;DHT22;76139;50.888;3.882;2024-02-15T05:43:38;13.30;84.90
85702;DHT22;76139;50.888;3.882;2024-02-15T05:46:05;13.20;84.70
85702;DHT22;76139;50.888;3.882;2024-02-15T05:48:32;13.30;84.20
85702;DHT22;76139;50.888;3.882;2024-02-15T05:51:01;13.20;84.30
85702;DHT22;76139;50.888;3.882;2024-02-15T05:53:26;13.10;84.40
85702;DHT22;76139;50.888;3.882;2024-02-15T05:55:53;13.10;84.00
85702;DHT22;76139;50.888;3.882;2024-02-15T05:58:18;13.10;84.70
85702;DHT22;76139;50.888;3.882;2024-02-15T06:00:44;13.10;83.70
85702;DHT22;76139;50.888;3.882;2024-02-15T06:03:13;13.10;83.50
85702;DHT22;76139;50.888;3.882;2024-02-15T06:05:39;13.10;83.70
85702;DHT22;76139;50.888;3.882;2024-02-15T06:08:05;13.00;83.80
85702;DHT22;76139;50.888;3.882;2024-02-15T06:10:31;13.00;83.70
85702;DHT22;76139;50.888;3.882;2024-02-15T06:12:58;13.10;83.20
85702;DHT22;76139;50.888;3.882;2024-02-15T06:15:26;13.10;83.50
85702;DHT22;76139;50.888;3.882;2024-02-15T06:17:52;13.00;83.40
85702;DHT22;76139;50.888;3.882;2024-02-15T06:20:18;13.00;83.30
85702;DHT22;76139;50.888;3.882;2024-02-15T06:22:48;13.00;83.60
85702;DHT22;76139;50.888;3.882;2024-02-15T06:25:14;13.00;83.30
85702;DHT22;76139;50.888;3.882;2024-02-15T06:27:45;13.00;83.30
85702;DHT22;76139;50.888;3.882;2024-02-15T06:30:12;13.00;83.10
85702;DHT22;76139;50.888;3.882;2024-02-15T06:32:57;13.00;83.20
85702;DHT22;76139;50.888;3.882;2024-02-15T06:35:42;13.00;83.10
85702;DHT22;76139;50.888;3.882;2024-02-15T06:38:26;12.90;83.20
85702;DHT22;76139;50.888;3.882;2024-02-15T06:41:10;12.90;82.90
85702;DHT22;76139;50.888;3.882;2024-02-15T06:43:36;12.90;82.80
85702;DHT22;76139;50.888;3.882;2024-02-15T06:46:06;12.90;82.90
85702;DHT22;76139;50.888;3.882;2024-02-15T06:48:32;12.90;82.50
85702;DHT22;76139;50.888;3.882;2024-02-15T06:50:57;12.90;82.80
85702;DHT22;76139;50.888;3.882;2024-02-15T06:53:23;12.90;82.80
85702;DHT22;76139;50.888;3.882;2024-02-15T06:55:49;12.90;82.60
85702;DHT22;76139;50.888;3.882;2024-02-15T06:58:16;12.90;82.50
85702;DHT22;76139;50.888;3.882;2024-02-15T07:00:45;12.90;83.00
85702;DHT22;76139;50.888;3.882;2024-02-15T07:03:10;12.90;82.40
85702;DHT22;76139;50.888;3.882;2024-02-15T07:05:37;12.90;82.30
85702;DHT22;76139;50.888;3.882;2024-02-15T07:08:07;12.90;82.50
85702;DHT22;76139;50.888;3.882;2024-02-15T07:10:33;12.90;82.50
85702;DHT22;76139;50.888;3.882;2024-02-15T07:12:58;13.00;82.00
85702;DHT22;76139;50.888;3.882;2024-02-15T07:15:25;13.00;81.90
85702;DHT22;76139;50.888;3.882;2024-02-15T07:17:51;13.00;81.80
85702;DHT22;76139;50.888;3.882;2024-02-15T07:20:20;13.00;81.80
85702;DHT22;76139;50.888;3.882;2024-02-15T07:22:47;13.00;81.60
85702;DHT22;76139;50.888;3.882;2024-02-15T07:25:13;12.90;81.90
85702;DHT22;76139;50.888;3.882;2024-02-15T07:27:39;12.90;82.00
85702;DHT22;76139;50.888;3.882;2024-02-15T07:30:06;13.00;81.70
85702;DHT22;76139;50.888;3.882;2024-02-15T07:32:34;13.00;81.60
85702;DHT22;76139;50.888;3.882;2024-02-15T07:35:01;13.10;81.20
85702;DHT22;76139;50.888;3.882;2024-02-15T07:37:27;13.10;80.70
85702;DHT22;76139;50.888;3.882;2024-02-15T07:39:54;13.20;80.20
85702;DHT22;76139;50.888;3.882;2024-02-15T07:42:20;13.30;80.50
85702;DHT22;76139;50.888;3.882;2024-02-15T07:44:46;13.40;80.20
85702;DHT22;76139;50.888;3.882;2024-02-15T07:47:11;13.40;79.70
85702;DHT22;76139;50.888;3.882;2024-02-15T07:49:37;13.40;79.90
85702;DHT22;76139;50.888;3.882;2024-02-15T07:52:03;13.50;79.60
85702;DHT22;76139;50.888;3.882;2024-02-15T07:54:30;13.60;78.80
85702;DHT22;76139;50.888;3.882;2024-02-15T07:56:56;13.70;78.20
85702;DHT22;76139;50.888;3.882;2024-02-15T07:59:23;13.50;78.50
85702;DHT22;76139;50.888;3.882;2024-02-15T08:01:49;13.50;78.80
85702;DHT22;76139;50.888;3.882;2024-02-15T08:04:19;13.50;79.20
85702;DHT22;76139;50.888;3.882;2024-02-15T08:06:46;13.50;79.60
85702;DHT22;76139;50.888;3.882;2024-02-15T08:09:15;13.50;79.30
85702;DHT22;76139;50.888;3.882;2024-02-15T08:11:43;13.50;79.00
85702;DHT22;76139;50.888;3.882;2024-02-15T08:14:09;13.40;79.80
85702;DHT22;76139;50.888;3.882;2024-02-15T08:16:37;13.30;80.00
85702;DHT22;76139;50.888;3.882;2024-02-15T08:19:03;13.30;80.20
85702;DHT22;76139;50.888;3.882;2024-02-15T08:21:31;13.30;80.30
85702;DHT22;76139;50.888;3.882;2024-02-15T08:24:06;13.40;79.90
85702;DHT22;76139;50.888;3.882;2024-02-15T08:26:33;13.60;80.10
85702;DHT22;76139;50.888;3.882;2024-02-15T08:28:58;13.70;79.30
85702;DHT22;76139;50.888;3.882;2024-02-15T08:31:24;13.70;79.30
85702;DHT22;76139;50.888;3.882;2024-02-15T08:33:50;13.70;78.90
85702;DHT22;76139;50.888;3.882;2024-02-15T08:36:15;13.60;78.50
85702;DHT22;76139;50.888;3.882;2024-02-15T08:38:41;13.50;79.40
85702;DHT22;76139;50.888;3.882;2024-02-15T08:41:07;13.40;80.00
85702;DHT22;76139;50.888;3.882;2024-02-15T08:43:34;13.30;80.00
85702;DHT22;76139;50.888;3.882;2024-02-15T08:46:00;13.30;80.00
85702;DHT22;76139;50.888;3.882;2024-02-15T08:48:26;13.30;80.30
85702;DHT22;76139;50.888;3.882;2024-02-15T08:50:52;13.30;80.40
85702;DHT22;76139;50.888;3.882;2024-02-15T08:53:18;13.30;80.40
85702;DHT22;76139;50.888;3.882;2024-02-15T08:55:48;13.40;80.20
85702;DHT22;76139;50.888;3.882;2024-02-15T08:58:14;13.40;80.30
85702;DHT22;76139;50.888;3.882;2024-02-15T09:00:40;13.40;80.40
85702;DHT22;76139;50.888;3.882;2024-02-15T09:03:13;13.50;80.20
85702;DHT22;76139;50.888;3.882;2024-02-15T09:05:40;13.50;79.50
85702;DHT22;76139;50.888;3.882;2024-02-15T09:08:07;13.50;79.50
85702;DHT22;76139;50.888;3.882;2024-02-15T09:10:33;13.60;79.30
85702;DHT22;76139;50.888;3.882;2024-02-15T09:12:59;13.60;78.50
85702;DHT22;76139;50.888;3.882;2024-02-15T09:15:24;13.60;78.50
85702;DHT22;76139;50.888;3.882;2024-02-15T09:17:50;13.80;78.20
85702;DHT22;76139;50.888;3.882;2024-02-15T09:20:17;13.80;77.90
85702;DHT22;76139;50.888;3.882;2024-02-15T09:22:50;13.90;77.70
85702;DHT22;76139;50.888;3.882;2024-02-15T09:25:19;14.20;76.80
85702;DHT22;76139;50.888;3.882;2024-02-15T09:27:46;14.50;75.50
85702;DHT22;76139;50.888;3.882;2024-02-15T09:30:12;14.80;74.30
85702;DHT22;76139;50.888;3.882;2024-02-15T09:32:39;14.80;74.00
85702;DHT22;76139;50.888;3.882;2024-02-15T09:35:05;15.00;73.20
85702;DHT22;76139;50.888;3.882;2024-02-15T09:37:37;14.70;73.30
85702;DHT22;76139;50.888;3.882;2024-02-15T09:40:08;14.80;74.10
85702;DHT22;76139;50.888;3.882;2024-02-15T09:42:35;14.80;74.00
85702;DHT22;76139;50.888;3.882;2024-02-15T09:45:02;14.90;73.70
85702;DHT22;76139;50.888;3.882;2024-02-15T09:47:37;15.20;72.80
85702;DHT22;76139;50.888;3.882;2024-02-15T09:50:08;15.50;71.40
85702;DHT22;76139;50.888;3.882;2024-02-15T09:52:38;15.80;70.30
85702;DHT22;76139;50.888;3.882;2024-02-15T09:55:05;15.90;69.70
85702;DHT22;76139;50.888;3.882;2024-02-15T09:57:31;16.00;69.60
85702;DHT22;76139;50.888;3.882;2024-02-15T09:59:58;15.80;70.00
85702;DHT22;76139;50.888;3.882;2024-02-15T10:02:26;15.90;70.50
85702;DHT22;76139;50.888;3.882;2024-02-15T10:04:53;15.60;70.40
85702;DHT22;76139;50.888;3.882;2024-02-15T10:07:25;15.40;71.30
85702;DHT22;76139;50.888;3.882;2024-02-15T10:09:53;15.30;72.30
85702;DHT22;76139;50.888;3.882;2024-02-15T10:12:19;15.20;72.80
85702;DHT22;76139;50.888;3.882;2024-02-15T10:14:50;15.20;72.60
85702;DHT22;76139;50.888;3.882;2024-02-15T10:17:18;15.30;72.70
85702;DHT22;76139;50.888;3.882;2024-02-15T10:19:44;15.30;72.30
85702;DHT22;76139;50.888;3.882;2024-02-15T10:22:12;15.40;72.80
85702;DHT22;76139;50.888;3.882;2024-02-15T10:24:40;15.50;70.80
85702;DHT22;76139;50.888;3.882;2024-02-15T10:27:06;15.40;71.00
85702;DHT22;76139;50.888;3.882;2024-02-15T10:29:33;15.50;70.90
85702;DHT22;76139;50.888;3.882;2024-02-15T10:32:03;15.40;71.30
85702;DHT22;76139;50.888;3.882;2024-02-15T10:34:30;15.40;71.40
85702;DHT22;76139;50.888;3.882;2024-02-15T10:37:10;15.40;71.40
85702;DHT22;76139;50.888;3.882;2024-02-15T10:39:36;15.50;71.40
85702;DHT22;76139;50.888;3.882;2024-02-15T10:42:03;16.00;70.70
85702;DHT22;76139;50.888;3.882;2024-02-15T10:44:32;16.10;68.80
85702;DHT22;76139;50.888;3.882;2024-02-15T10:46:59;16.20;69.30
85702;DHT22;76139;50.888;3.882;2024-02-15T10:49:26;16.20;69.10
85702;DHT22;76139;50.888;3.882;2024-02-15T10:51:57;16.20;69.30
85702;DHT22;76139;50.888;3.882;2024-02-15T10:54:43;15.90;68.70
85702;DHT22;76139;50.888;3.882;2024-02-15T10:57:12;15.70;69.90
85702;DHT22;76139;50.888;3.882;2024-02-15T10:59:47;15.80;70.00
85702;DHT22;76139;50.888;3.882;2024-02-15T11:02:27;15.70;70.60
85702;DHT22;76139;50.888;3.882;2024-02-15T11:04:58;15.80;70.50
85702;DHT22;76139;50.888;3.882;2024-02-15T11:07:25;15.80;70.50
85702;DHT22;76139;50.888;3.882;2024-02-15T11:09:54;15.60;70.60
85702;DHT22;76139;50.888;3.882;2024-02-15T11:12:24;15.50;71.00
85702;DHT22;76139;50.888;3.882;2024-02-15T11:14:53;15.60;71.20
85702;DHT22;76139;50.888;3.882;2024-02-15T11:20:08;15.60;70.90
85702;DHT22;76139;50.888;3.882;2024-02-15T11:22:36;15.60;71.60
85702;DHT22;76139;50.888;3.882;2024-02-15T11:25:03;15.50;70.70
85702;DHT22;76139;50.888;3.882;2024-02-15T11:27:37;15.70;71.00
85702;DHT22;76139;50.888;3.882;2024-02-15T11:30:05;15.60;70.10
85702;DHT22;76139;50.888;3.882;2024-02-15T11:32:46;15.80;70.30
85702;DHT22;76139;50.888;3.882;2024-02-15T11:35:35;15.90;70.30
85702;DHT22;76139;50.888;3.882;2024-02-15T11:38:01;16.00;69.10
85702;DHT22;76139;50.888;3.882;2024-02-15T11:43:08;15.90;69.40
85702;DHT22;76139;50.888;3.882;2024-02-15T11:45:34;15.90;69.60
85702;DHT22;76139;50.888;3.882;2024-02-15T11:48:10;15.80;70.10
85702;DHT22;76139;50.888;3.882;2024-02-15T11:50:37;15.70;70.30
85702;DHT22;76139;50.888;3.882;2024-02-15T11:53:05;15.80;70.30
85702;DHT22;76139;50.888;3.882;2024-02-15T11:55:35;15.90;69.10
85702;DHT22;76139;50.888;3.882;2024-02-15T11:58:02;15.90;69.20
85702;DHT22;76139;50.888;3.882;2024-02-15T12:00:31;16.00;69.20
85702;DHT22;76139;50.888;3.882;2024-02-15T12:03:16;16.20;67.60
85702;DHT22;76139;50.888;3.882;2024-02-15T12:06:01;16.50;67.40
85702;DHT22;76139;50.888;3.882;2024-02-15T12:08:50;16.80;65.80
85702;DHT22;76139;50.888;3.882;2024-02-15T12:11:35;17.10;64.90
85702;DHT22;76139;50.888;3.882;2024-02-15T12:14:20;17.70;63.20
85702;DHT22;76139;50.888;3.882;2024-02-15T12:17:04;18.30;61.90
85702;DHT22;76139;50.888;3.882;2024-02-15T12:19:50;18.00;63.00
85702;DHT22;76139;50.888;3.882;2024-02-15T12:25:00;17.10;64.00
85702;DHT22;76139;50.888;3.882;2024-02-15T12:27:26;16.90;65.70
85702;DHT22;76139;50.888;3.882;2024-02-15T12:29:58;16.70;65.40
85702;DHT22;76139;50.888;3.882;2024-02-15T12:32:26;16.70;66.00
85702;DHT22;76139;50.888;3.882;2024-02-15T12:34:52;16.80;66.10
85702;DHT22;76139;50.888;3.882;2024-02-15T12:37:22;16.80;65.50
85702;DHT22;76139;50.888;3.882;2024-02-15T12:39:49;16.90;65.40
85702;DHT22;76139;50.888;3.882;2024-02-15T12:42:16;17.30;65.30
85702;DHT22;76139;50.888;3.882;2024-02-15T12:44:46;17.80;61.90
85702;DHT22;76139;50.888;3.882;2024-02-15T12:47:20;17.60;62.00
85702;DHT22;76139;50.888;3.882;2024-02-15T12:49:45;17.30;62.80
85702;DHT22;76139;50.888;3.882;2024-02-15T12:55:13;17.00;63.50
85702;DHT22;76139;50.888;3.882;2024-02-15T12:57:41;17.00;64.40
85702;DHT22;76139;50.888;3.882;2024-02-15T13:00:09;16.90;62.80
85702;DHT22;76139;50.888;3.882;2024-02-15T13:02:59;16.90;63.50
85702;DHT22;76139;50.888;3.882;2024-02-15T13:05:28;16.90;63.40
85702;DHT22;76139;50.888;3.882;2024-02-15T13:07:54;16.80;63.30
85702;DHT22;76139;50.888;3.882;2024-02-15T13:10:21;16.70;64.50
85702;DHT22;76139;50.888;3.882;2024-02-15T13:12:47;16.90;64.40
85702;DHT22;76139;50.888;3.882;2024-02-15T13:15:14;17.00;63.60
85702;DHT22;76139;50.888;3.882;2024-02-15T13:17:44;17.20;63.40
85702;DHT22;76139;50.888;3.882;2024-02-15T13:20:14;17.40;63.10
85702;DHT22;76139;50.888;3.882;2024-02-15T13:22:42;17.40;61.30
85702;DHT22;76139;50.888;3.882;2024-02-15T13:25:09;17.50;61.60
85702;DHT22;76139;50.888;3.882;2024-02-15T13:27:36;17.30;61.80
85702;DHT22;76139;50.888;3.882;2024-02-15T13:30:04;17.60;61.00
85702;DHT22;76139;50.888;3.882;2024-02-15T13:32:34;17.50;60.50
85702;DHT22;76139;50.888;3.882;2024-02-15T13:35:01;17.30;62.90
85702;DHT22;76139;50.888;3.882;2024-02-15T13:37:33;17.40;61.70
85702;DHT22;76139;50.888;3.882;2024-02-15T13:39:58;17.20;62.10
85702;DHT22;76139;50.888;3.882;2024-02-15T13:42:24;17.20;61.30
85702;DHT22;76139;50.888;3.882;2024-02-15T13:44:50;17.10;61.20
85702;DHT22;76139;50.888;3.882;2024-02-15T13:47:15;17.00;60.50
85702;DHT22;76139;50.888;3.882;2024-02-15T13:49:42;16.90;60.90
85702;DHT22;76139;50.888;3.882;2024-02-15T13:52:08;16.90;61.50
85702;DHT22;76139;50.888;3.882;2024-02-15T13:54:36;16.70;61.60
85702;DHT22;76139;50.888;3.882;2024-02-15T13:57:03;16.70;62.60
85702;DHT22;76139;50.888;3.882;2024-02-15T13:59:29;16.70;62.80
85702;DHT22;76139;50.888;3.882;2024-02-15T14:01:57;16.70;63.30
85702;DHT22;76139;50.888;3.882;2024-02-15T14:04:23;16.70;63.70
85702;DHT22;76139;50.888;3.882;2024-02-15T14:06:49;16.70;63.80
85702;DHT22;76139;50.888;3.882;2024-02-15T14:09:15;16.60;63.90
85702;DHT22;76139;50.888;3.882;2024-02-15T14:11:42;16.70;65.40
85702;DHT22;76139;50.888;3.882;2024-02-15T14:14:08;16.60;64.10
85702;DHT22;76139;50.888;3.882;2024-02-15T14:16:34;16.70;63.60
85702;DHT22;76139;50.888;3.882;2024-02-15T14:19:00;16.80;63.30
85702;DHT22;76139;50.888;3.882;2024-02-15T14:21:29;16.80;62.60
85702;DHT22;76139;50.888;3.882;2024-02-15T14:23:57;17.00;62.60
85702;DHT22;76139;50.888;3.882;2024-02-15T14:26:23;17.00;62.40
85702;DHT22;76139;50.888;3.882;2024-02-15T14:28:52;16.90;62.80
85702;DHT22;76139;50.888;3.882;2024-02-15T14:31:18;16.80;62.40
85702;DHT22;76139;50.888;3.882;2024-02-15T14:34:02;16.90;62.30
85702;DHT22;76139;50.888;3.882;2024-02-15T14:36:28;16.80;62.90
85702;DHT22;76139;50.888;3.882;2024-02-15T14:38:54;16.80;62.60
85702;DHT22;76139;50.888;3.882;2024-02-15T14:41:20;16.90;62.10
85702;DHT22;76139;50.888;3.882;2024-02-15T14:43:46;17.00;61.70
85702;DHT22;76139;50.888;3.882;2024-02-15T14:46:12;16.90;61.90
85702;DHT22;76139;50.888;3.882;2024-02-15T14:48:38;16.90;61.70
85702;DHT22;76139;50.888;3.882;2024-02-15T14:51:06;16.90;61.40
85702;DHT22;76139;50.888;3.882;2024-02-15T14:53:34;17.00;62.10
85702;DHT22;76139;50.888;3.882;2024-02-15T14:56:00;16.90;61.60
85702;DHT22;76139;50.888;3.882;2024-02-15T14:58:27;17.00;61.20
85702;DHT22;76139;50.888;3.882;2024-02-15T15:00:53;17.00;61.50
85702;DHT22;76139;50.888;3.882;2024-02-15T15:03:18;17.00;61.00
85702;DHT22;76139;50.888;3.882;2024-02-15T15:05:45;17.00;61.00
85702;DHT22;76139;50.888;3.882;2024-02-15T15:08:29;17.10;60.80
85702;DHT22;76139;50.888;3.882;2024-02-15T15:11:13;17.00;61.50
85702;DHT22;76139;50.888;3.882;2024-02-15T15:13:58;16.90;61.30
85702;DHT22;76139;50.888;3.882;2024-02-15T15:16:23;16.80;61.30
85702;DHT22;76139;50.888;3.882;2024-02-15T15:18:51;16.70;61.90
85702;DHT22;76139;50.888;3.882;2024-02-15T15:21:18;16.80;61.70
85702;DHT22;76139;50.888;3.882;2024-02-15T15:23:44;16.60;61.90
85702;DHT22;76139;50.888;3.882;2024-02-15T15:26:11;16.60;61.90
85702;DHT22;76139;50.888;3.882;2024-02-15T15:28:38;16.50;62.30
85702;DHT22;76139;50.888;3.882;2024-02-15T15:31:04;16.40;62.40
85702;DHT22;76139;50.888;3.882;2024-02-15T15:33:30;16.40;62.30
85702;DHT22;76139;50.888;3.882;2024-02-15T15:36:01;16.40;62.60
85702;DHT22;76139;50.888;3.882;2024-02-15T15:38:29;16.40;62.70
85702;DHT22;76139;50.888;3.882;2024-02-15T15:40:55;16.40;62.50
85702;DHT22;76139;50.888;3.882;2024-02-15T15:43:21;16.30;62.90
85702;DHT22;76139;50.888;3.882;2024-02-15T15:45:47;16.30;62.70
85702;DHT22;76139;50.888;3.882;2024-02-15T15:48:13;16.20;63.30
85702;DHT22;76139;50.888;3.882;2024-02-15T15:50:39;16.20;63.00